createdAt,value
2018-03-28T00:01:45.942Z,26.25
2018-03-28T00:04:14.126Z,25.12
2018-03-28T00:06:43.009Z,25.70
2018-03-28T00:09:11.758Z,24.33
2018-03-28T00:11:39.977Z,26.95
2018-03-28T00:14:08.142Z,26.48
2018-03-28T00:16:36.861Z,25.37
2018-03-28T00:19:05.115Z,24.27
2018-03-28T00:21:34.108Z,24.95
2018-03-28T00:24:02.380Z,26.30
2018-03-28T00:26:30.656Z,24.55
2018-03-28T00:28:58.932Z,25.98
2018-03-28T00:31:27.099Z,26.00
2018-03-28T00:33:55.382Z,27.02
2018-03-28T00:36:23.657Z,25.88
2018-03-28T00:38:51.933Z,28.60
2018-03-28T00:41:20.209Z,27.75
2018-03-28T00:43:48.476Z,31.40
2018-03-28T00:46:17.671Z,30.48
2018-03-28T00:48:45.848Z,29.40
2018-03-28T00:51:26.820Z,30.90
2018-03-28T00:53:54.996Z,29.52
2018-03-28T00:56:23.280Z,31.08
2018-03-28T00:58:51.555Z,27.52
2018-03-28T01:01:20.445Z,30.33
2018-03-28T01:03:48.824Z,28.65
2018-03-28T01:06:23.506Z,31.87
2018-03-28T01:08:51.516Z,33.20
2018-03-28T01:11:19.585Z,28.60
2018-03-28T01:13:47.550Z,31.12
2018-03-28T01:16:15.515Z,28.30
2018-03-28T01:18:43.702Z,30.23
2018-03-28T01:21:11.659Z,31.48
2018-03-28T01:23:39.627Z,30.90
2018-03-28T01:26:07.711Z,28.48
2018-03-28T01:28:35.678Z,28.87
2018-03-28T01:31:03.854Z,29.90
2018-03-28T01:33:31.816Z,30.85
2018-03-28T01:35:59.986Z,29.10
2018-03-28T01:38:28.987Z,26.60
2018-03-28T01:40:57.154Z,31.37
2018-03-28T01:43:25.327Z,31.48
2018-03-28T01:45:53.290Z,31.08
2018-03-28T01:48:21.466Z,30.88
2018-03-28T01:50:50.567Z,31.45
2018-03-28T01:53:18.732Z,33.08
2018-03-28T01:55:47.020Z,30.50
2018-03-28T01:58:15.188Z,32.80
2018-03-28T02:00:43.356Z,31.92
2018-03-28T02:03:12.463Z,33.15
2018-03-28T02:05:40.625Z,32.90
2018-03-28T02:08:08.900Z,32.47
2018-03-28T02:10:37.074Z,32.75
2018-03-28T02:13:05.363Z,35.80
2018-03-28T02:15:33.638Z,30.65
2018-03-28T02:18:02.630Z,34.15
2018-03-28T02:20:30.799Z,33.30
2018-03-28T02:22:58.949Z,33.65
2018-03-28T02:25:27.867Z,32.63
2018-03-28T02:27:56.029Z,32.67
2018-03-28T02:30:24.205Z,36.33
2018-03-28T02:32:52.377Z,31.83
2018-03-28T02:35:20.555Z,30.60
2018-03-28T02:37:48.729Z,31.83
2018-03-28T02:40:16.795Z,31.15
2018-03-28T02:42:45.187Z,31.40
2018-03-28T02:45:14.281Z,33.08
2018-03-28T02:47:42.444Z,32.22
2018-03-28T02:50:10.497Z,33.75
2018-03-28T02:52:38.802Z,32.50
2018-03-28T02:55:06.970Z,31.67
2018-03-28T02:57:35.141Z,34.55
2018-03-28T03:00:03.425Z,32.72
2018-03-28T03:02:32.200Z,33.17
2018-03-28T03:05:00.376Z,36.22
2018-03-28T03:07:28.547Z,37.45
2018-03-28T03:09:56.835Z,40.90
2018-03-28T03:12:25.728Z,37.20
2018-03-28T03:14:54.398Z,37.50
2018-03-28T03:17:23.390Z,39.47
2018-03-28T03:19:51.462Z,32.97
2018-03-28T03:22:19.638Z,33.55
2018-03-28T03:24:47.923Z,33.55
2018-03-28T03:27:16.093Z,28.87
2018-03-28T03:29:44.264Z,30.85
2018-03-28T03:32:12.432Z,32.00
2018-03-28T03:34:40.606Z,29.37
2018-03-28T03:37:10.329Z,29.60
2018-03-28T03:39:38.493Z,31.65
2018-03-28T03:42:06.662Z,30.33
2018-03-28T03:44:35.552Z,31.20
2018-03-28T03:47:03.733Z,34.10
2018-03-28T03:49:33.540Z,29.60
2018-03-28T03:52:01.712Z,29.00
2018-03-28T03:54:30.884Z,32.03
2018-03-28T03:56:59.081Z,28.35
2018-03-28T03:59:27.260Z,25.88
2018-03-28T04:01:55.434Z,29.02
2018-03-28T04:04:23.717Z,29.90
2018-03-28T04:06:51.885Z,28.48
2018-03-28T04:09:20.052Z,30.23
2018-03-28T04:11:48.228Z,31.08
2018-03-28T04:14:16.402Z,31.30
2018-03-28T04:16:44.470Z,32.80
2018-03-28T04:19:12.643Z,29.23
2018-03-28T04:21:43.492Z,30.23
2018-03-28T04:24:12.165Z,29.95
2018-03-28T04:26:41.776Z,31.92
2018-03-28T04:29:10.064Z,32.65
2018-03-28T04:31:38.336Z,29.77
2018-03-28T04:34:06.497Z,31.23
2018-03-28T04:36:34.707Z,30.65
2018-03-28T04:39:03.667Z,30.67
2018-03-28T04:41:31.940Z,32.58
2018-03-28T04:44:00.226Z,30.42
2018-03-28T04:46:28.393Z,32.20
2018-03-28T04:48:56.566Z,26.85
2018-03-28T04:51:25.567Z,31.30
2018-03-28T04:53:53.732Z,30.77
2018-03-28T04:56:21.999Z,31.15
2018-03-28T04:58:50.189Z,31.33
2018-03-28T05:01:18.354Z,30.17
2018-03-28T05:03:46.639Z,33.95
2018-03-28T05:06:14.886Z,33.78
2018-03-28T05:08:42.979Z,31.70
2018-03-28T05:11:11.149Z,28.90
2018-03-28T05:13:39.325Z,31.00
2018-03-28T05:16:07.500Z,33.42
2018-03-28T05:18:35.784Z,34.60
2018-03-28T05:21:03.945Z,35.47
2018-03-28T05:23:32.120Z,35.15
2018-03-28T05:26:00.291Z,33.85
2018-03-28T05:28:28.580Z,32.92
2018-03-28T05:30:56.865Z,31.52
2018-03-28T05:33:25.842Z,32.60
2018-03-28T05:35:54.063Z,33.72
2018-03-28T05:38:22.809Z,32.08
2018-03-28T05:40:50.971Z,32.95
2018-03-28T05:43:19.149Z,33.13
2018-03-28T05:45:48.060Z,35.58
2018-03-28T05:48:17.141Z,35.00
2018-03-28T05:50:45.416Z,37.05
2018-03-28T05:53:13.580Z,33.35
2018-03-28T05:55:41.755Z,34.60
2018-03-28T05:58:09.823Z,31.77
2018-03-28T06:00:38.009Z,34.70
2018-03-28T06:03:06.786Z,34.22
2018-03-28T06:05:35.585Z,34.35
2018-03-28T06:08:05.283Z,35.88
2018-03-28T06:10:33.357Z,34.30
2018-03-28T06:13:01.593Z,33.65
2018-03-28T06:15:29.705Z,35.85
2018-03-28T06:17:57.874Z,34.60
2018-03-28T06:20:26.560Z,34.92
2018-03-28T06:22:54.848Z,37.03
2018-03-28T06:25:23.013Z,39.45
2018-03-28T06:27:51.182Z,38.50
2018-03-28T06:30:19.472Z,36.30
2018-03-28T06:32:48.349Z,38.10
2018-03-28T06:35:16.637Z,37.72
2018-03-28T06:37:44.805Z,38.28
2018-03-28T06:40:13.086Z,39.33
2018-03-28T06:42:41.248Z,42.28
2018-03-28T06:45:09.536Z,38.78
2018-03-28T06:47:37.699Z,41.17
2018-03-28T06:50:05.984Z,46.08
2018-03-28T06:52:34.151Z,41.50
2018-03-28T06:55:02.325Z,45.53
2018-03-28T06:57:30.611Z,50.00
2018-03-28T06:59:59.497Z,47.22
2018-03-28T07:02:27.663Z,49.20
2018-03-28T07:04:56.550Z,51.65
2018-03-28T07:07:24.838Z,50.58
2018-03-28T07:09:53.004Z,49.00
2018-03-28T07:12:21.793Z,53.53
2018-03-28T07:14:50.581Z,52.42
2018-03-28T07:17:18.753Z,51.47
2018-03-28T07:19:47.745Z,48.40
2018-03-28T07:22:15.917Z,47.55
2018-03-28T07:24:44.095Z,48.40
2018-03-28T07:27:13.095Z,48.75
2018-03-28T07:29:41.984Z,49.90
2018-03-28T07:32:10.144Z,49.33
2018-03-28T07:34:38.431Z,47.58
2018-03-28T07:37:06.595Z,47.75
2018-03-28T07:39:34.773Z,44.33
2018-03-28T07:42:02.941Z,45.90
2018-03-28T07:44:31.129Z,43.40
2018-03-28T07:46:59.264Z,42.70
2018-03-28T07:49:27.462Z,47.90
2018-03-28T07:51:55.636Z,47.72
2018-03-28T07:54:23.814Z,46.70
2018-03-28T07:56:52.609Z,46.60
2018-03-28T07:59:20.888Z,42.30
2018-03-28T08:01:49.262Z,48.00
2018-03-28T08:04:17.424Z,45.85
2018-03-28T08:06:45.606Z,42.47
2018-03-28T08:09:14.603Z,45.42
2018-03-28T08:11:43.597Z,43.38
2018-03-28T08:14:22.407Z,45.08
2018-03-28T08:16:50.701Z,46.67
2018-03-28T08:19:19.688Z,45.17
2018-03-28T08:21:47.850Z,49.17
2018-03-28T08:24:16.023Z,49.07
2018-03-28T08:26:44.200Z,50.13
2018-03-28T08:29:12.370Z,48.40
2018-03-28T08:31:40.658Z,47.00
2018-03-28T08:34:08.819Z,51.57
2018-03-28T08:36:37.107Z,48.33
2018-03-28T08:39:05.376Z,46.37
2018-03-28T08:41:33.550Z,48.07
2018-03-28T08:44:01.622Z,47.07
2018-03-28T08:46:29.801Z,50.63
2018-03-28T08:48:58.682Z,49.13
2018-03-28T08:51:26.853Z,51.23
2018-03-28T08:53:55.032Z,45.90
2018-03-28T08:56:23.869Z,47.33
2018-03-28T08:58:52.093Z,47.60
2018-03-28T09:01:20.377Z,47.63
2018-03-28T09:03:48.543Z,48.40
2018-03-28T09:06:16.725Z,44.67
2018-03-28T09:08:45.001Z,43.30
2018-03-28T09:11:13.162Z,46.00
2018-03-28T09:13:48.604Z,44.70
2018-03-28T09:16:29.748Z,42.10
2018-03-28T09:19:12.304Z,43.30
2018-03-28T09:21:41.095Z,45.17
2018-03-28T09:24:10.150Z,47.50
2018-03-28T09:26:38.870Z,45.97
2018-03-28T09:29:07.037Z,42.53
2018-03-28T09:31:52.771Z,44.20
2018-03-28T09:34:21.009Z,43.67
2018-03-28T09:36:49.989Z,41.30
2018-03-28T09:39:19.596Z,41.77
2018-03-28T09:41:47.593Z,42.70
2018-03-28T09:44:29.300Z,37.63
2018-03-28T09:47:17.030Z,37.30
2018-03-28T09:52:56.489Z,37.23
2018-03-28T09:55:24.490Z,35.97
2018-03-28T09:57:52.479Z,39.83
2018-03-28T10:00:25.985Z,36.37
2018-03-28T10:02:59.634Z,39.90
2018-03-28T10:05:33.059Z,35.97
2018-03-28T10:08:01.087Z,28.23
2018-03-28T10:10:29.790Z,26.70
2018-03-28T10:12:57.736Z,22.40
2018-03-28T10:15:26.495Z,24.30
2018-03-28T10:17:54.495Z,26.27
2018-03-28T10:20:22.538Z,22.50
2018-03-28T10:22:50.508Z,21.70
2018-03-28T10:25:18.532Z,21.23
2018-03-28T10:27:46.503Z,24.83
2018-03-28T10:30:14.453Z,22.10
2018-03-28T10:32:42.453Z,21.17
2018-03-28T10:35:10.454Z,20.50
2018-03-28T10:37:38.448Z,20.30
2018-03-28T10:40:07.259Z,22.07
2018-03-28T10:42:35.223Z,20.33
2018-03-28T10:45:03.259Z,21.60
2018-03-28T10:47:32.046Z,20.40
2018-03-28T10:49:59.989Z,20.33
2018-03-28T10:52:27.982Z,21.37
2018-03-28T10:54:56.052Z,21.20
2018-03-28T10:57:24.086Z,21.50
2018-03-28T10:59:52.105Z,24.20
2018-03-28T11:02:20.819Z,22.13
2018-03-28T11:04:48.771Z,22.57
2018-03-28T11:07:16.730Z,23.40
2018-03-28T11:09:45.492Z,21.87
2018-03-28T11:12:13.453Z,23.40
2018-03-28T11:14:41.401Z,22.73
2018-03-28T11:17:09.338Z,21.50
2018-03-28T11:19:37.358Z,22.33
2018-03-28T11:22:05.314Z,24.70
2018-03-28T11:24:33.298Z,24.03
2018-03-28T11:27:01.273Z,25.57
2018-03-28T11:29:29.286Z,24.57
2018-03-28T11:31:57.256Z,24.60
2018-03-28T11:34:25.218Z,26.40
2018-03-28T11:36:53.214Z,27.30
2018-03-28T11:39:21.263Z,24.07
2018-03-28T11:41:49.186Z,25.50
2018-03-28T11:44:17.187Z,25.47
2018-03-28T11:46:45.990Z,27.63
2018-03-28T11:49:13.937Z,25.10
2018-03-28T11:51:42.631Z,25.90
2018-03-28T11:54:11.386Z,23.47
2018-03-28T11:56:39.402Z,23.23
2018-03-28T11:59:07.386Z,24.90
2018-03-28T12:01:35.354Z,22.17
2018-03-28T12:04:03.342Z,25.90
2018-03-28T12:06:31.289Z,25.20
2018-03-28T12:08:59.229Z,24.60
2018-03-28T12:11:27.950Z,24.87
2018-03-28T12:13:55.939Z,20.70
2018-03-28T12:16:23.949Z,21.63
2018-03-28T12:18:52.624Z,25.27
2018-03-28T12:21:20.780Z,23.47
2018-03-28T12:23:48.845Z,25.43
2018-03-28T12:26:16.799Z,24.37
2018-03-28T12:28:44.810Z,23.77
2018-03-28T12:31:13.489Z,25.70
2018-03-28T12:33:41.479Z,26.37
2018-03-28T12:36:10.173Z,24.80
2018-03-28T12:38:38.112Z,27.40
2018-03-28T12:41:06.051Z,27.10
2018-03-28T12:43:34.024Z,25.30
2018-03-28T12:46:02.017Z,26.57
2018-03-28T12:51:27.894Z,24.80
2018-03-28T12:54:10.654Z,23.07
2018-03-28T12:56:39.436Z,23.70
2018-03-28T12:59:07.457Z,23.33
2018-03-28T13:01:35.442Z,25.20
2018-03-28T13:04:03.465Z,25.77
2018-03-28T13:06:31.408Z,25.57
2018-03-28T13:08:59.483Z,25.43
2018-03-28T13:11:27.434Z,25.50
2018-03-28T13:13:55.439Z,26.00
2018-03-28T13:16:23.381Z,25.53
2018-03-28T13:18:51.545Z,28.60
2018-03-28T13:21:19.577Z,30.10
2018-03-28T13:23:48.282Z,28.70
2018-03-28T13:26:16.218Z,28.17
2018-03-28T13:28:44.190Z,29.93
2018-03-28T13:31:12.977Z,29.70
2018-03-28T13:33:41.708Z,29.50
2018-03-28T13:36:09.694Z,26.53
2018-03-28T13:38:37.629Z,28.70
2018-03-28T13:41:05.656Z,30.83
2018-03-28T13:43:33.619Z,34.97
2018-03-28T13:46:01.617Z,28.67
2018-03-28T13:48:30.296Z,35.50
2018-03-28T13:50:58.986Z,43.80
2018-03-28T13:53:27.759Z,48.93
2018-03-28T13:55:55.710Z,31.03
2018-03-28T13:58:23.634Z,31.00
2018-03-28T14:00:51.679Z,33.77
2018-03-28T14:03:20.386Z,34.30
2018-03-28T14:05:48.442Z,29.97
2018-03-28T14:08:17.176Z,30.20
2018-03-28T14:10:45.193Z,29.13
2018-03-28T14:13:13.954Z,29.17
2018-03-28T14:15:41.885Z,30.63
2018-03-28T14:18:09.947Z,28.00
2018-03-28T14:20:37.950Z,30.77
2018-03-28T14:23:05.871Z,32.07
2018-03-28T14:25:33.810Z,27.73
2018-03-28T14:28:01.881Z,28.97
2018-03-28T14:30:29.859Z,30.17
2018-03-28T14:32:57.842Z,28.20
2018-03-28T14:35:26.599Z,30.60
2018-03-28T14:37:55.357Z,31.00
2018-03-28T14:40:23.274Z,31.00
2018-03-28T14:42:54.587Z,29.73
2018-03-28T14:45:20.031Z,30.20
2018-03-28T14:47:48.731Z,30.20
2018-03-28T14:50:16.707Z,30.70
2018-03-28T14:52:44.683Z,31.23
2018-03-28T14:55:12.691Z,30.23
2018-03-28T14:57:40.643Z,28.80
2018-03-28T15:00:08.670Z,29.10
2018-03-28T15:02:37.471Z,30.63
2018-03-28T15:05:05.553Z,29.73
2018-03-28T15:07:33.506Z,28.10
2018-03-28T15:10:01.455Z,29.83
2018-03-28T15:12:30.221Z,28.53
2018-03-28T15:14:58.232Z,26.77
2018-03-28T15:17:26.243Z,27.80
2018-03-28T15:19:54.256Z,26.60
2018-03-28T15:22:22.981Z,29.13
2018-03-28T15:24:51.010Z,25.43
2018-03-28T15:27:19.821Z,27.57
2018-03-28T15:29:47.759Z,26.47
2018-03-28T15:32:15.747Z,28.10
2018-03-28T15:34:44.480Z,23.33
2018-03-28T15:37:16.980Z,27.50
2018-03-28T15:39:44.928Z,24.87
2018-03-28T15:42:12.955Z,24.40
2018-03-28T15:44:40.951Z,23.23
2018-03-28T15:47:08.887Z,24.57
2018-03-28T15:49:37.728Z,24.13
2018-03-28T15:52:05.774Z,26.10
2018-03-28T15:54:33.905Z,24.50
2018-03-28T15:57:02.616Z,23.40
2018-03-28T15:59:30.570Z,22.77
2018-03-28T16:01:58.645Z,26.57
2018-03-28T16:04:27.531Z,25.40
2018-03-28T16:06:56.347Z,25.60
2018-03-28T16:09:24.498Z,25.00
2018-03-28T16:11:52.790Z,27.27
2018-03-28T16:14:20.896Z,26.13
2018-03-28T16:16:49.152Z,27.00
2018-03-28T16:19:17.485Z,27.67
2018-03-28T16:21:46.408Z,27.80
2018-03-28T16:24:14.622Z,27.67
2018-03-28T16:26:43.266Z,28.03
2018-03-28T16:29:11.460Z,25.60
2018-03-28T16:31:39.706Z,27.97
2018-03-28T16:34:08.009Z,27.97
2018-03-28T16:36:36.233Z,26.20
2018-03-28T16:39:05.398Z,27.27
2018-03-28T16:41:33.666Z,25.50
2018-03-28T16:44:01.939Z,24.50
2018-03-28T16:46:30.267Z,25.43
2018-03-28T16:48:59.398Z,24.50
2018-03-28T16:51:27.654Z,23.60
2018-03-28T16:53:55.984Z,26.83
2018-03-28T16:56:24.289Z,24.30
2018-03-28T16:58:53.432Z,23.73
2018-03-28T17:01:21.838Z,24.00
2018-03-28T17:03:50.128Z,22.50
2018-03-28T17:06:18.424Z,25.00
2018-03-28T17:08:47.507Z,24.20
2018-03-28T17:11:15.821Z,25.47
2018-03-28T17:13:44.061Z,24.87
2018-03-28T17:16:13.175Z,24.87
2018-03-28T17:18:41.427Z,25.10
2018-03-28T17:21:10.517Z,25.30
2018-03-28T17:23:38.807Z,22.43
2018-03-28T17:26:07.904Z,21.27
2018-03-28T17:28:36.924Z,17.40
2018-03-28T17:31:05.247Z,23.20
2018-03-28T17:33:33.505Z,26.43
2018-03-28T17:36:01.797Z,25.60
2018-03-28T17:38:30.165Z,9.80
2018-03-28T17:40:58.433Z,6.80
2018-03-28T17:43:26.673Z,6.30
2018-03-28T17:45:54.913Z,5.90
2018-03-28T17:48:23.205Z,5.10
2018-03-28T17:50:52.240Z,5.43
2018-03-28T17:53:20.521Z,4.53
2018-03-28T17:55:48.875Z,6.03
2018-03-28T17:58:17.208Z,4.90
2018-03-28T18:00:45.529Z,4.30
2018-03-28T18:03:13.876Z,4.57
2018-03-28T18:05:42.881Z,5.20
2018-03-28T18:08:11.881Z,4.50
2018-03-28T18:10:40.219Z,4.40
2018-03-28T18:13:10.530Z,5.80
2018-03-28T18:15:38.822Z,5.07
2018-03-28T18:18:07.159Z,5.30
2018-03-28T18:20:35.484Z,5.47
2018-03-28T18:23:03.821Z,4.70
2018-03-28T18:25:32.049Z,4.83
2018-03-28T18:28:01.070Z,5.30
2018-03-28T18:30:29.426Z,5.20
2018-03-28T18:32:58.492Z,4.90
2018-03-28T18:35:26.852Z,6.23
2018-03-28T18:37:55.224Z,4.83
2018-03-28T18:40:23.560Z,4.93
2018-03-28T18:42:52.608Z,5.43
2018-03-28T18:45:20.939Z,5.30
2018-03-28T18:47:49.268Z,7.57
2018-03-28T18:50:17.610Z,4.50
2018-03-28T18:52:45.913Z,4.47
2018-03-28T18:55:14.653Z,5.93
2018-03-28T18:57:44.478Z,5.90
2018-03-28T19:00:13.372Z,6.87
2018-03-28T19:02:44.195Z,11.90
2018-03-28T19:05:14.838Z,17.60
2018-03-28T19:07:44.430Z,19.57
2018-03-28T19:10:13.324Z,29.80
2018-03-28T19:12:41.906Z,34.17
2018-03-28T19:15:10.809Z,35.60
2018-03-28T19:17:40.303Z,35.50
2018-03-28T19:20:10.832Z,34.27
2018-03-28T19:22:39.732Z,36.10
2018-03-28T19:25:09.340Z,36.83
2018-03-28T19:27:39.134Z,39.63
2018-03-28T19:30:08.025Z,37.53
2018-03-28T19:32:37.625Z,36.53
2018-03-28T19:35:06.531Z,38.27
2018-03-28T19:37:35.314Z,36.80
2018-03-28T19:40:05.132Z,38.10
2018-03-28T19:42:34.127Z,35.40
2018-03-28T19:45:03.019Z,36.07
2018-03-28T19:47:33.731Z,35.73
2018-03-28T19:50:02.636Z,37.67
2018-03-28T19:52:31.951Z,38.53
2018-03-28T19:55:01.333Z,37.50
2018-03-28T19:57:30.226Z,38.20
2018-03-28T19:59:59.938Z,37.30
2018-03-28T20:02:28.727Z,38.90
2018-03-28T20:04:57.513Z,37.10
2018-03-28T20:07:27.847Z,37.70
2018-03-28T20:09:57.447Z,37.60
2018-03-28T20:12:27.107Z,36.63
2018-03-28T20:14:56.555Z,40.33
2018-03-28T20:17:26.159Z,39.23
2018-03-28T20:19:55.669Z,41.37
2018-03-28T20:22:25.473Z,40.13
2018-03-28T20:24:54.361Z,39.23
2018-03-28T20:27:22.954Z,40.73
2018-03-28T20:29:52.664Z,41.93
2018-03-28T20:32:21.444Z,41.00
2018-03-28T20:34:51.781Z,40.53
2018-03-28T20:37:21.994Z,38.37
2018-03-28T20:39:50.875Z,39.07
2018-03-28T20:42:20.601Z,38.60
2018-03-28T20:44:49.389Z,40.60
2018-03-28T20:47:19.000Z,43.07
2018-03-28T20:49:47.811Z,41.57
2018-03-28T20:52:17.378Z,37.50
2018-03-28T20:54:46.065Z,41.87
2018-03-28T20:57:14.749Z,40.50
2018-03-28T20:59:45.173Z,38.90
2018-03-28T21:02:14.211Z,39.83
2018-03-28T21:04:42.283Z,39.00
2018-03-28T21:07:10.265Z,41.53
2018-03-28T21:09:38.271Z,40.00
2018-03-28T21:12:07.001Z,42.13
2018-03-28T21:14:35.011Z,38.67
2018-03-28T21:17:03.038Z,39.40
2018-03-28T21:19:31.056Z,38.10
2018-03-28T21:21:59.790Z,39.70
2018-03-28T21:24:27.804Z,42.20
2018-03-28T21:26:55.763Z,37.63
2018-03-28T21:29:23.724Z,39.17
2018-03-28T21:31:51.698Z,38.40
2018-03-28T21:34:19.690Z,38.53
2018-03-28T21:36:48.403Z,40.27
2018-03-28T21:39:16.402Z,39.20
2018-03-28T21:41:46.152Z,42.17
2018-03-28T21:44:15.873Z,41.20
2018-03-28T21:46:44.371Z,40.60
2018-03-28T21:49:12.340Z,39.17
2018-03-28T21:51:41.809Z,39.60
2018-03-28T21:54:11.629Z,40.50
2018-03-28T21:56:39.752Z,36.90
2018-03-28T21:59:07.720Z,41.57
2018-03-28T22:01:35.682Z,41.07
2018-03-28T22:04:03.707Z,39.60
2018-03-28T22:06:32.506Z,40.27
2018-03-28T22:09:01.344Z,40.50
2018-03-28T22:11:29.304Z,40.80
2018-03-28T22:13:57.289Z,40.53
2018-03-28T22:16:25.987Z,39.40
2018-03-28T22:18:55.040Z,40.17
2018-03-28T22:21:22.994Z,40.60
2018-03-28T22:23:51.101Z,40.53
2018-03-28T22:26:19.119Z,39.03
2018-03-28T22:28:47.945Z,42.70
2018-03-28T22:31:15.910Z,38.47
2018-03-28T22:33:43.885Z,38.87
2018-03-28T22:36:11.888Z,39.50
2018-03-28T22:38:39.946Z,40.83
2018-03-28T22:41:07.918Z,41.13
2018-03-28T22:43:35.830Z,42.10
2018-03-28T22:46:04.573Z,38.43
2018-03-28T22:48:32.496Z,37.60
2018-03-28T22:51:00.466Z,39.90
2018-03-28T22:53:28.422Z,37.97
2018-03-28T22:55:57.118Z,39.80
2018-03-28T22:58:25.195Z,38.77
2018-03-28T23:00:53.173Z,38.47
2018-03-28T23:03:21.198Z,38.07
2018-03-28T23:05:49.203Z,36.83
2018-03-28T23:08:17.232Z,39.00
2018-03-28T23:10:45.235Z,39.37
2018-03-28T23:13:13.174Z,38.37
2018-03-28T23:15:41.459Z,32.90
2018-03-28T23:18:10.246Z,28.57
2018-03-28T23:20:38.946Z,12.67
2018-03-28T23:23:07.701Z,11.50
2018-03-28T23:25:35.642Z,7.00
2018-03-28T23:28:03.712Z,7.73
2018-03-28T23:30:31.731Z,7.17
2018-03-28T23:33:00.441Z,6.70
2018-03-28T23:35:28.397Z,5.73
2018-03-28T23:37:57.114Z,4.83
2018-03-28T23:40:25.034Z,6.47
2018-03-28T23:42:53.794Z,5.60
2018-03-28T23:45:21.756Z,4.97
2018-03-28T23:47:49.691Z,5.30
2018-03-28T23:50:17.658Z,5.37
2018-03-28T23:52:45.590Z,4.20
2018-03-28T23:55:13.505Z,5.60
2018-03-28T23:57:41.416Z,4.80
